createdAt,value
2019-05-01T00:02:24.334Z,100.00
2019-05-01T00:14:45.844Z,100.00
2019-05-01T00:20:30.493Z,100.00
2019-05-01T00:23:19.329Z,100.00
2019-05-01T00:26:08.333Z,100.00
2019-05-01T00:28:57.242Z,100.00
2019-05-01T00:31:46.214Z,100.00
2019-05-01T00:34:35.110Z,100.00
2019-05-01T00:37:24.010Z,100.00
2019-05-01T00:40:12.987Z,100.00
2019-05-01T00:43:01.933Z,100.00
2019-05-01T00:45:50.744Z,100.00
2019-05-01T00:48:32.935Z,100.00
2019-05-01T00:51:21.820Z,100.00
2019-05-01T00:54:10.618Z,100.00
2019-05-01T00:57:18.556Z,100.00
2019-05-01T01:00:26.564Z,100.00
2019-05-01T01:02:56.153Z,100.00
2019-05-01T01:05:44.963Z,100.00
2019-05-01T01:08:33.858Z,100.00
2019-05-01T01:11:22.752Z,100.00
2019-05-01T01:14:11.595Z,100.00
2019-05-01T01:17:00.492Z,100.00
2019-05-01T01:19:49.331Z,100.00
2019-05-01T01:22:38.221Z,100.00
2019-05-01T01:25:27.141Z,100.00
2019-05-01T01:28:15.963Z,100.00
2019-05-01T01:31:04.990Z,100.00
2019-05-01T01:33:53.900Z,100.00
2019-05-01T01:36:42.751Z,100.00
2019-05-01T01:39:12.428Z,100.00
2019-05-01T01:42:01.412Z,100.00
2019-05-01T01:47:41.164Z,100.00
2019-05-01T01:50:30.083Z,100.00
2019-05-01T01:56:47.790Z,100.00
2019-05-01T01:59:36.776Z,100.00
2019-05-01T02:02:44.713Z,100.00
2019-05-01T02:08:55.761Z,100.00
2019-05-01T02:11:33.799Z,100.00
2019-05-01T02:14:22.711Z,100.00
2019-05-01T02:17:11.600Z,100.00
2019-05-01T02:20:00.505Z,100.00
2019-05-01T02:22:49.373Z,100.00
2019-05-01T02:28:52.984Z,100.00
2019-05-01T02:44:42.872Z,100.00
2019-05-01T02:47:26.336Z,100.00
2019-05-01T02:50:15.253Z,100.00
2019-05-01T02:53:04.135Z,100.00
2019-05-01T03:05:38.483Z,100.00
2019-05-01T03:08:27.595Z,100.00
2019-05-01T03:11:16.492Z,100.00
2019-05-01T03:20:54.072Z,100.00
2019-05-01T03:24:03.433Z,100.00
2019-05-01T03:26:52.378Z,100.00
2019-05-01T03:32:36.573Z,100.00
2019-05-01T03:38:53.773Z,100.00
2019-05-01T03:41:42.647Z,100.00
2019-05-01T03:44:31.496Z,100.00
2019-05-01T03:47:14.005Z,100.00
2019-05-01T03:53:18.028Z,100.00
2019-05-01T03:56:07.209Z,100.00
2019-05-01T03:58:56.101Z,100.00
2019-05-01T04:04:40.756Z,100.00
2019-05-01T04:07:29.662Z,100.00
2019-05-01T04:19:43.908Z,100.00
2019-05-01T04:22:53.265Z,100.00
2019-05-01T04:25:42.171Z,100.00
2019-05-01T04:32:05.403Z,100.00
2019-05-01T04:37:50.052Z,100.00
2019-05-01T04:40:38.870Z,100.00
2019-05-01T04:43:27.776Z,100.00
2019-05-01T04:46:16.727Z,100.00
2019-05-01T04:49:05.627Z,100.00
2019-05-01T04:51:54.525Z,100.00
2019-05-01T04:54:43.543Z,100.00
2019-05-01T04:57:32.562Z,100.00
2019-05-01T05:00:21.414Z,100.00
2019-05-01T05:06:19.731Z,100.00
2019-05-01T05:09:08.560Z,100.00
2019-05-01T05:14:57.181Z,100.00
2019-05-01T05:17:46.141Z,100.00
2019-05-01T05:20:35.233Z,100.00
2019-05-01T05:23:24.329Z,100.00
2019-05-01T05:26:13.221Z,100.00
2019-05-01T05:29:02.146Z,100.00
2019-05-01T05:35:40.226Z,100.00
2019-05-01T05:44:54.981Z,100.00
2019-05-01T05:47:36.535Z,100.00
2019-05-01T05:50:44.600Z,100.00
2019-05-01T06:03:57.562Z,100.00
2019-05-01T06:10:34.273Z,100.00
2019-05-01T06:17:10.458Z,100.00
2019-05-01T06:32:57.657Z,100.00
2019-05-01T06:35:46.578Z,100.00
2019-05-01T06:38:36.104Z,100.00
2019-05-01T06:45:16.853Z,100.00
2019-05-01T06:47:58.364Z,100.00
2019-05-01T06:54:22.542Z,100.00
2019-05-01T07:00:26.655Z,100.00
2019-05-01T07:03:15.578Z,100.00
2019-05-01T07:06:14.137Z,100.00
2019-05-01T07:08:55.361Z,100.00
2019-05-01T07:18:13.365Z,100.00
2019-05-01T07:21:02.348Z,100.00
2019-05-01T07:23:52.305Z,100.00
2019-05-01T07:26:43.832Z,100.00
2019-05-01T07:32:28.262Z,100.00
2019-05-01T07:35:17.168Z,100.00
2019-05-01T07:38:06.221Z,100.00
2019-05-01T07:40:58.891Z,100.00
2019-05-01T07:44:04.958Z,100.00
2019-05-01T07:49:58.161Z,100.00
2019-05-01T07:53:07.548Z,100.00
2019-05-01T07:59:27.473Z,100.00
2019-05-01T08:02:15.516Z,100.00
2019-05-01T08:05:24.359Z,100.00
2019-05-01T08:08:13.269Z,100.00
2019-05-01T08:11:05.319Z,100.00
2019-05-01T08:13:52.668Z,100.00
2019-05-01T08:16:22.344Z,100.00
2019-05-01T08:25:20.064Z,100.00
2019-05-01T08:34:20.615Z,100.00
2019-05-01T08:37:08.802Z,100.00
2019-05-01T08:39:57.653Z,100.00
2019-05-01T08:42:46.517Z,100.00
2019-05-01T08:45:35.711Z,100.00
2019-05-01T08:48:44.877Z,100.00
2019-05-01T08:51:34.763Z,100.00
2019-05-01T08:54:24.347Z,100.00
2019-05-01T08:57:13.175Z,100.00
2019-05-01T09:00:02.095Z,100.00
2019-05-01T09:02:50.961Z,100.00
2019-05-01T09:05:39.825Z,100.00
2019-05-01T09:08:32.006Z,100.00
2019-05-01T09:11:19.256Z,100.00
2019-05-01T09:14:08.129Z,100.00
2019-05-01T09:16:56.997Z,100.00
2019-05-01T09:19:45.904Z,100.00
2019-05-01T09:22:34.824Z,100.00
2019-05-01T09:34:24.950Z,100.00
2019-05-01T09:37:13.842Z,100.00
2019-05-01T09:43:17.434Z,100.00
2019-05-01T09:46:06.396Z,100.00
2019-05-01T09:48:48.649Z,100.00
2019-05-01T09:51:56.682Z,100.00
2019-05-01T09:57:42.840Z,100.00
2019-05-01T10:03:41.520Z,100.00
2019-05-01T10:06:30.426Z,100.00
2019-05-01T10:09:19.343Z,100.00
2019-05-01T10:12:11.618Z,100.00
2019-05-01T10:14:58.893Z,98.52
2019-05-01T10:17:47.779Z,98.54
2019-05-01T10:20:36.619Z,100.00
2019-05-01T10:23:25.492Z,100.00
2019-05-01T10:29:42.882Z,98.55
2019-05-01T10:38:39.815Z,97.57
2019-05-01T10:41:27.829Z,94.12
2019-05-01T10:44:16.738Z,95.27
2019-05-01T10:47:05.587Z,94.75
2019-05-01T10:49:47.225Z,95.87
2019-05-01T10:52:36.075Z,94.13
2019-05-01T10:55:24.984Z,96.10
2019-05-01T10:58:18.307Z,93.11
2019-05-01T11:01:23.513Z,92.15
2019-05-01T11:04:12.430Z,92.35
2019-05-01T11:07:01.285Z,93.85
2019-05-01T11:09:50.154Z,92.72
2019-05-01T11:12:39.003Z,89.68
2019-05-01T11:15:27.942Z,91.02
2019-05-01T11:18:16.805Z,89.63
2019-05-01T11:21:05.726Z,87.85
2019-05-01T11:23:54.554Z,86.98
2019-05-01T11:26:43.501Z,87.22
2019-05-01T11:29:32.317Z,86.70
2019-05-01T11:35:16.470Z,84.78
2019-05-01T11:38:24.362Z,83.55
2019-05-01T11:41:32.292Z,87.90
2019-05-01T11:44:21.205Z,87.83
2019-05-01T11:47:10.179Z,89.31
2019-05-01T11:49:59.060Z,84.00
2019-05-01T11:52:47.906Z,84.93
2019-05-01T11:55:36.752Z,84.44
2019-05-01T11:58:25.592Z,84.82
2019-05-01T12:04:10.303Z,83.00
2019-05-01T12:06:59.330Z,80.96
2019-05-01T12:09:48.258Z,80.83
2019-05-01T12:12:37.093Z,82.46
2019-05-01T12:15:26.030Z,83.58
2019-05-01T12:18:14.857Z,78.62
2019-05-01T12:21:03.876Z,77.40
2019-05-01T12:23:52.740Z,77.08
2019-05-01T12:26:41.627Z,81.20
2019-05-01T12:29:30.467Z,78.67
2019-05-01T12:32:19.438Z,78.61
2019-05-01T12:35:08.508Z,75.37
2019-05-01T12:41:12.126Z,73.42
2019-05-01T12:44:01.185Z,74.23
2019-05-01T12:47:09.038Z,75.34
2019-05-01T12:49:57.964Z,74.64
2019-05-01T12:53:05.814Z,75.66
2019-05-01T12:56:13.695Z,77.92
2019-05-01T12:59:02.623Z,79.55
2019-05-01T13:01:51.907Z,77.60
2019-05-01T13:04:40.748Z,75.09
2019-05-01T13:07:29.743Z,74.46
2019-05-01T13:10:18.677Z,76.52
2019-05-01T13:13:07.607Z,73.52
2019-05-01T13:15:56.517Z,73.89
2019-05-01T13:18:45.366Z,73.08
2019-05-01T13:21:34.228Z,73.27
2019-05-01T13:24:23.151Z,70.99
2019-05-01T13:27:30.997Z,71.05
2019-05-01T13:30:38.871Z,68.51
2019-05-01T13:33:27.776Z,70.15
2019-05-01T13:36:16.651Z,69.25
2019-05-01T13:39:26.348Z,69.53
2019-05-01T13:42:15.201Z,69.46
2019-05-01T13:45:24.656Z,71.64
2019-05-01T13:48:13.496Z,67.23
2019-05-01T13:50:55.444Z,67.68
2019-05-01T13:53:44.300Z,66.82
2019-05-01T13:56:33.158Z,66.60
2019-05-01T13:59:22.056Z,64.99
2019-05-01T14:02:11.081Z,63.06
2019-05-01T14:04:59.942Z,62.55
2019-05-01T14:07:49.024Z,63.09
2019-05-01T14:10:37.946Z,63.44
2019-05-01T14:13:26.776Z,61.81
2019-05-01T14:16:15.658Z,61.47
2019-05-01T14:19:04.657Z,62.04
2019-05-01T14:22:12.563Z,60.88
2019-05-01T14:28:10.899Z,61.59
2019-05-01T14:30:59.747Z,60.06
2019-05-01T14:33:48.700Z,58.30
2019-05-01T14:36:37.594Z,63.07
2019-05-01T14:39:26.552Z,58.15
2019-05-01T14:42:15.469Z,57.15
2019-05-01T14:45:25.280Z,56.41
2019-05-01T14:48:14.154Z,58.04
2019-05-01T14:50:55.791Z,56.91
2019-05-01T14:53:44.704Z,57.19
2019-05-01T14:56:33.560Z,56.83
2019-05-01T14:59:22.504Z,57.87
2019-05-01T15:02:11.390Z,59.27
2019-05-01T15:05:00.375Z,59.72
2019-05-01T15:07:49.287Z,59.73
2019-05-01T15:10:38.205Z,59.62
2019-05-01T15:16:55.358Z,58.87
2019-05-01T15:20:03.218Z,59.45
2019-05-01T15:22:52.095Z,56.94
2019-05-01T15:25:41.077Z,61.11
2019-05-01T15:28:29.946Z,54.54
2019-05-01T15:31:18.805Z,54.82
2019-05-01T15:34:07.651Z,58.10
2019-05-01T15:36:56.585Z,53.86
2019-05-01T15:43:00.179Z,53.72
2019-05-01T15:45:48.997Z,56.64
2019-05-01T15:48:37.878Z,59.96
2019-05-01T15:51:26.698Z,59.00
2019-05-01T15:54:15.619Z,55.05
2019-05-01T16:03:34.013Z,56.83
2019-05-01T16:06:22.856Z,58.56
2019-05-01T16:09:11.761Z,64.33
2019-05-01T16:12:19.718Z,60.69
2019-05-01T16:18:24.565Z,65.08
2019-05-01T16:21:13.596Z,63.08
2019-05-01T16:24:02.472Z,64.40
2019-05-01T16:26:51.272Z,65.20
2019-05-01T16:29:40.165Z,65.68
2019-05-01T16:35:38.420Z,68.23
2019-05-01T16:38:46.623Z,70.85
2019-05-01T16:41:35.610Z,70.17
2019-05-01T16:44:24.561Z,72.78
2019-05-01T16:47:13.461Z,72.91
2019-05-01T16:50:02.324Z,71.79
2019-05-01T16:52:44.390Z,71.70
2019-05-01T16:55:33.304Z,73.76
2019-05-01T16:58:22.312Z,73.90
2019-05-01T17:04:58.813Z,71.26
2019-05-01T17:08:06.656Z,70.96
2019-05-01T17:10:55.594Z,72.37
2019-05-01T17:13:44.519Z,74.86
2019-05-01T17:16:33.383Z,75.20
2019-05-01T17:19:22.305Z,76.50
2019-05-01T17:22:14.418Z,76.40
2019-05-01T17:25:01.848Z,76.24
2019-05-01T17:27:50.711Z,76.30
2019-05-01T17:34:09.819Z,78.95
2019-05-01T17:36:59.390Z,81.06
2019-05-01T17:39:48.258Z,81.79
2019-05-01T17:42:37.634Z,83.04
2019-05-01T17:45:29.944Z,82.75
2019-05-01T17:48:18.407Z,82.76
2019-05-01T17:51:07.250Z,85.02
2019-05-01T17:53:48.736Z,85.06
2019-05-01T17:56:37.681Z,85.89
2019-05-01T17:59:26.546Z,85.92
2019-05-01T18:02:34.491Z,87.32
2019-05-01T18:08:19.544Z,89.98
2019-05-01T18:11:09.386Z,91.16
2019-05-01T18:13:59.074Z,92.04
2019-05-01T18:16:47.995Z,92.64
2019-05-01T18:19:36.878Z,93.79
2019-05-01T18:25:54.246Z,95.59
2019-05-01T18:29:05.849Z,96.45
2019-05-01T18:31:52.854Z,97.39
2019-05-01T18:34:41.815Z,98.37
2019-05-01T18:37:49.699Z,99.13
2019-05-01T18:43:48.131Z,100.00
2019-05-01T18:46:37.037Z,100.00
2019-05-01T18:49:25.959Z,100.00
2019-05-01T18:52:08.948Z,100.00
2019-05-01T18:54:57.813Z,100.00
2019-05-01T18:57:46.656Z,100.00
2019-05-01T19:00:35.594Z,100.00
2019-05-01T19:03:24.475Z,100.00
2019-05-01T19:06:13.508Z,100.00
2019-05-01T19:09:14.343Z,100.00
2019-05-01T19:11:53.020Z,100.00
2019-05-01T19:14:41.862Z,100.00
2019-05-01T19:17:30.850Z,100.00
2019-05-01T19:20:19.772Z,100.00
2019-05-01T19:23:08.770Z,100.00
2019-05-01T19:28:57.496Z,100.00
2019-05-01T19:31:46.462Z,100.00
2019-05-01T19:34:35.303Z,100.00
2019-05-01T19:37:28.201Z,100.00
2019-05-01T19:43:43.718Z,100.00
2019-05-01T19:46:32.659Z,100.00
2019-05-01T19:49:24.746Z,100.00
2019-05-01T19:52:12.324Z,100.00
2019-05-01T19:54:54.416Z,100.00
2019-05-01T19:57:44.358Z,100.00
2019-05-01T20:00:45.703Z,100.00
2019-05-01T20:03:36.791Z,100.00
2019-05-01T20:06:25.181Z,100.00
2019-05-01T20:12:23.436Z,100.00
2019-05-01T20:15:12.268Z,100.00
2019-05-01T20:18:01.146Z,100.00
2019-05-01T20:20:50.040Z,100.00
2019-05-01T20:23:38.993Z,100.00
2019-05-01T20:26:32.180Z,100.00
2019-05-01T20:29:00.452Z,100.00
2019-05-01T20:31:50.722Z,100.00
2019-05-01T20:34:40.325Z,100.00
2019-05-01T20:37:29.219Z,100.00
2019-05-01T20:40:18.279Z,100.00
2019-05-01T20:43:07.382Z,100.00
2019-05-01T20:45:56.380Z,100.00
2019-05-01T20:48:45.287Z,100.00
2019-05-01T20:51:34.204Z,100.00
2019-05-01T20:54:16.550Z,100.00
2019-05-01T20:59:55.618Z,100.00
2019-05-01T21:02:44.601Z,100.00
2019-05-01T21:11:28.527Z,100.00
2019-05-01T21:14:22.728Z,100.00
2019-05-01T21:17:09.487Z,100.00
2019-05-01T21:19:58.687Z,100.00
2019-05-01T21:22:47.564Z,100.00
2019-05-01T21:25:36.473Z,100.00
2019-05-01T21:28:25.330Z,100.00
2019-05-01T21:31:14.230Z,100.00
2019-05-01T21:34:04.178Z,100.00
2019-05-01T21:36:54.022Z,100.00
2019-05-01T21:39:44.266Z,100.00
2019-05-01T21:42:33.111Z,100.00
2019-05-01T21:45:23.000Z,100.00
2019-05-01T21:48:13.362Z,100.00
2019-05-01T21:51:07.131Z,100.00
2019-05-01T21:53:46.621Z,100.00
2019-05-01T21:56:36.930Z,100.00
2019-05-01T21:59:26.171Z,100.00
2019-05-01T22:02:15.084Z,100.00
2019-05-01T22:08:34.473Z,100.00
2019-05-01T22:11:22.808Z,100.00
2019-05-01T22:32:06.027Z,100.00
2019-05-01T22:34:54.641Z,100.00
2019-05-01T22:37:43.585Z,100.00
2019-05-01T22:41:04.724Z,100.00
2019-05-01T22:43:42.138Z,100.00
2019-05-01T22:46:33.857Z,100.00
2019-05-01T22:49:21.571Z,100.00
2019-05-01T22:52:10.428Z,100.00
2019-05-01T22:54:52.279Z,100.00
2019-05-01T22:57:41.126Z,100.00
2019-05-01T23:00:49.056Z,100.00
2019-05-01T23:06:41.786Z,100.00
2019-05-01T23:12:37.780Z,100.00
2019-05-01T23:18:55.102Z,100.00
2019-05-01T23:24:53.343Z,100.00
2019-05-01T23:27:42.317Z,100.00
2019-05-01T23:30:31.404Z,100.00
2019-05-01T23:33:20.325Z,100.00
2019-05-01T23:36:22.664Z,100.00
2019-05-01T23:38:59.905Z,100.00
2019-05-01T23:41:48.760Z,100.00
2019-05-01T23:44:38.172Z,100.00
2019-05-01T23:47:28.214Z,100.00
2019-05-01T23:50:17.133Z,100.00
2019-05-01T23:53:09.149Z,100.00
2019-05-01T23:55:49.292Z,100.00
2019-05-01T23:58:38.228Z,100.00
